• Join FlightAware (Why Join?)
  • Login
  • US Flag 
07:47AM EDT


 

Airport Tracker/Info


-or-


 

Live Flight TrackerFlight Track Log ✈ UAL4693 ✈ 05-May-2013 ✈ KCLE - KMSN

Flight Track Log - Related Links

Times and Time Zones

All times are in EDT time to prevent confusion due to time zone crossing. See the UAL4693 flight status page for this flight to view local times or setup timezone preferences in your user account.

Time Position Orientation Groundspeed Altitude Reporting Facility
EDT Latitude Longitude Course Direction KTS MPH feet Rate Location/Type
04:56PM 41.4258 -81.8292 351° North 191 220 2,000  Level Cleveland Center
04:56PM 41.4425 -81.8325 351° North 217 250 2,400 1,980 Climbing Cleveland Center
04:57PM 41.4797 -81.8442 347° North 239 275 3,600 2,700 Climbing Cleveland Center
04:57PM 41.4939 -81.8778 299° West 266 306 5,200 2,880 Climbing Cleveland Center
04:58PM 41.4831 -81.9303 255° West 272 313 6,500 3,000 Climbing Cleveland Center
04:58PM 41.4678 -81.9825 249° West 284 327 8,300 3,060 Climbing Cleveland Center
04:59PM 41.4547 -82.0239 247° West 305 351 9,600 2,340 Climbing Cleveland Center
05:00PM 41.4242 -82.1228 248° West 305 351 11,800 2,100 Climbing Cleveland Center
05:01PM 41.3914 -82.2356 249° West 319 367 13,800 1,980 Climbing Cleveland Center
05:02PM 41.3564 -82.3564 249° West 338 389 15,800 1,980 Climbing Cleveland Center
05:03PM 41.3211 -82.4769 249° West 352 405 17,800 1,320 Climbing Cleveland Center
05:05PM 41.2742 -82.7658 258° West 397 457 19,800 960 Climbing Cleveland Center
05:06PM 41.2569 -82.9033 261° West 428 493 20,800 1,200 Climbing Cleveland Center
05:07PM 41.2953 -83.0567 288° West 423 487 22,300 1,500 Climbing Cleveland Center
05:08PM 41.3847 -83.1653 318° Northwest 409 471 23,900 1,320 Climbing Cleveland Center
05:09PM 41.4697 -83.2739 316° Northwest 421 484 25,000 960 Climbing Cleveland Center
05:10PM 41.5608 -83.3861 317° Northwest 434 499 25,900 480 Climbing Cleveland Center
05:11PM 41.6219 -83.5278 300° West 434 499 26,000  Climbing Cleveland Center
05:12PM 41.6761 -83.6886 294° West 456 525 26,000  Level Cleveland Center
05:13PM 41.7278 -83.8497 293° West 462 532 26,100 540 Climbing Cleveland Center
05:14PM 41.7817 -84.0083 295° West 467 537 27,100 900 Climbing Cleveland Center
05:15PM 41.8353 -84.1647 295° West 467 537 28,000 960 Climbing Cleveland Center
05:16PM 41.8967 -84.3328 296° West 462 532 29,100 960 Climbing Cleveland Center
05:18PM 42.0056 -84.6703 294° West 444 511 31,200 840 Climbing Chicago Center
05:19PM 42.0556 -84.8206 294° West 443 510 32,000 360 Climbing Chicago Center
05:20PM 42.1069 -84.9769 294° West 455 524 32,000  Level Chicago Center
05:22PM 42.1488 -85.1702 297° West  Level FlightAware Approximate
05:22PM 42.2089 -85.2931 297° West 459 528 32,000  Level Chicago Center
05:23PM 42.2697 -85.4836 293° West 462 532 32,000  Level Chicago Center
05:24PM 42.3197 -85.6425 293° West 460 529 32,000  Level Chicago Center
05:25PM 42.3719 -85.8028 294° West 464 534 32,000  Level Chicago Center
05:26PM 42.4211 -85.9633 293° West 463 533 32,000  Level Chicago Center
05:27PM 42.4711 -86.1239 293° West 463 533 32,000  Level Chicago Center
05:28PM 42.5206 -86.2844 293° West 462 532 32,000  Level Chicago Center
05:29PM 42.5706 -86.4456 293° West 460 529 32,000  Level Chicago Center
05:30PM 42.6300 -86.6408 293° West 464 534 32,000  Level Chicago Center
05:31PM 42.6789 -86.8022 292° West 462 532 32,000  Level Chicago Center
05:32PM 42.7283 -86.9642 293° West 462 532 32,000  Level Chicago Center
05:34PM 42.7761 -87.1253 292° West 460 529 32,000  Level Chicago Center
05:35PM 42.8242 -87.2853 292° West 458 527 32,000 -480 Level Chicago Center
05:36PM 42.8744 -87.4519 292° West 456 525 31,100 -1,560 Descending Chicago Center
05:37PM 42.9303 -87.6406 292° West 460 529 28,800 -2,100 Descending Chicago Center
05:38PM 42.9786 -87.8053 292° West 465 535 26,800 -1,980 Descending Chicago Center
05:39PM 43.0272 -87.9750 291° West 475 547 24,800 -1,980 Descending Chicago Center
05:40PM 43.0733 -88.1378 291° West 459 528 22,800 -2,040 Descending Chicago Center
05:41PM 43.1142 -88.2936 290° West 438 504 20,700 -2,280 Descending Chicago Center
05:42PM 43.1208 -88.4597 273° West 433 498 18,100 -2,520 Descending Chicago Center
05:43PM 43.1242 -88.6208 272° West 422 486 15,500 -3,060 Descending Chicago Center
05:44PM 43.1281 -88.7953 272° West 391 450 11,800 -2,760 Descending Chicago Center
05:45PM 43.1319 -88.9292 272° West 354 407 9,800 -2,040 Descending Chicago Center
05:46PM 43.1203 -89.0408 262° West 297 342 7,700 -2,280 Descending Chicago Center
05:47PM 43.0953 -89.1386 251° West 282 325 5,200 -1,800 Descending Chicago Center
05:48PM 43.0597 -89.2222 240° Southwest 272 313 4,000 -1,260 Descending Chicago Center
05:49PM 42.9864 -89.2522 197° South 262 302 2,700 -660 Descending Chicago Center
05:50PM 43.0117 -89.3322 293° West 257 296 2,700 -360 Level Chicago Center
05:51PM 43.0769 -89.3469 351° North 246 283 2,000 -720 Descending Chicago Center
05:52PM 43.1256 -89.3456 North 207 238 1,300 -720 Descending Chicago Center
05:54PM 43.1333 -89.3333 North  Level FlightAware Approximate
06:01PM 43.1399 -89.3375 North  Level Estimated